Sv.knyaz Vladimir — UBKI2 — position and weather

sailwx.info

Track history (hours):
 
Tides and Currents Weather Stations Pressure Air Temp Water Temp Dewpoint Dewpoint Depression Visibility Wind Speed Wind Dir Waves Ship Positions

Sv.knyaz Vladimir

Last reported at 2017-Jul-22 04:16 UTC. Time now 2017-Jul-22 16:25 UTC.
Position N 45°54' E 037°01'.

Length 128 m; draft 3 m.

Type: Cargo ship. MMSI: 273350360.

Date/timePositionNaut miles runAvg speedWind from/ knotsBaromVisibWave heightAir tempDewpointWater temp
2017-Jul-22 04:16N 45°54' E 037°01'2 8.6
2017-Jul-22 03:59N 45°52' E 037°00'4 8.6
2017-Jul-22 03:30N 45°48' E 036°58'4 8.6
2017-Jul-22 03:00N 45°44' E 036°56'4 8.5
2017-Jul-22 02:30N 45°40' E 036°54'12 8.2
2017-Jul-22 01:05N 45°31' E 036°45'1 8.1
2017-Jul-22 00:59N 45°30' E 036°44'4 8.2
2017-Jul-22 00:30N 45°26' E 036°41'4 8.5
2017-Jul-22 00:00N 45°22' E 036°40'4 7.3
2017-Jul-21 23:30N 45°20' E 036°36'5 8.7
2017-Jul-21 22:58N 45°18' E 036°30'5 6.1
2017-Jul-21 22:09N 45°13' E 036°29'5 1.7
2017-Jul-21 19:10N 45°09' E 036°33'0 0.1
2017-Jul-21 17:07N 45°09' E 036°33'0 0.0
2017-Jul-21 16:43N 45°09' E 036°33'0 0.0
2017-Jul-21 15:22N 45°09' E 036°33'0 0.0
2017-Jul-21 14:49N 45°09' E 036°33'0 0.0
2017-Jul-21 10:52N 45°09' E 036°33'0 0.0
2017-Jul-21 10:13N 45°09' E 036°33'0 0.0
2017-Jul-21 08:52N 45°09' E 036°33'0 0.0
2017-Jul-21 07:40N 45°09' E 036°33'0 0.0
2017-Jul-21 07:28N 45°09' E 036°33'0 0.0
2017-Jul-21 06:52N 45°09' E 036°33'0 0.0
2017-Jul-21 05:46N 45°09' E 036°33'0 0.0
2017-Jul-21 05:22N 45°09' E 036°33'0 0.0
2017-Jul-21 04:58N 45°09' E 036°33'0 0.0
2017-Jul-21 03:52N 45°09' E 036°33'0 0.0
2017-Jul-21 00:19N 45°09' E 036°33'0 0.0
2017-Jul-20 23:58N 45°09' E 036°33'0 0.0
2017-Jul-20 23:28N 45°09' E 036°33'0 0.0
2017-Jul-20 20:28N 45°09' E 036°33'5 3.4
2017-Jul-20 18:59N 45°13' E 036°28'4 7.6
2017-Jul-20 18:30N 45°16' E 036°28'3 7.0
2017-Jul-20 18:00N 45°19' E 036°32'4 8.2
2017-Jul-20 17:30N 45°21' E 036°37'3 6.3
2017-Jul-20 17:00N 45°23' E 036°40'3 7.0
2017-Jul-20 16:30N 45°26' E 036°41'3 6.4
2017-Jul-20 16:00N 45°29' E 036°39'1 0.2
2017-Jul-20 13:06N 45°30' E 036°38'0 0.0
2017-Jul-20 12:39N 45°30' E 036°38'0 0.0
2017-Jul-20 12:18N 45°30' E 036°38'0 0.0
2017-Jul-20 11:42N 45°30' E 036°38'0 0.0
2017-Jul-20 11:09N 45°30' E 036°38'0 0.0
2017-Jul-20 07:24N 45°30' E 036°38'0 0.0
2017-Jul-20 07:00N 45°30' E 036°38'0 0.0
2017-Jul-20 05:57N 45°30' E 036°38'0 0.0
2017-Jul-20 05:25N 45°30' E 036°38'0 0.0
2017-Jul-20 00:39N 45°30' E 036°38'0 0.1
2017-Jul-20 00:30N 45°30' E 036°38'0 0.0
2017-Jul-19 21:54N 45°30' E 036°38'0 0.0
2017-Jul-19 21:29N 45°30' E 036°38'0 0.0
2017-Jul-19 20:59N 45°30' E 036°38'0 0.0
2017-Jul-19 20:29N 45°30' E 036°38'0 0.0
2017-Jul-19 19:59N 45°30' E 036°38'0 0.0
2017-Jul-19 19:26N 45°30' E 036°38'0 0.0
2017-Jul-19 18:59N 45°30' E 036°38'0 0.0
2017-Jul-19 18:29N 45°30' E 036°38'0 0.0
2017-Jul-19 17:59N 45°30' E 036°38'0 0.0
2017-Jul-19 17:29N 45°30' E 036°38'0 0.0
2017-Jul-19 16:53N 45°30' E 036°38'0 0.0
2017-Jul-19 16:29N 45°30' E 036°38'0 0.0
2017-Jul-19 15:59N 45°30' E 036°38'0 0.0
2017-Jul-19 15:29N 45°30' E 036°38'0 0.0
2017-Jul-19 14:53N 45°30' E 036°38'0 0.0
2017-Jul-19 14:29N 45°30' E 036°38'0 0.0
2017-Jul-19 13:56N 45°30' E 036°38'0 0.0
2017-Jul-19 13:26N 45°30' E 036°38'0 0.0
2017-Jul-19 12:59N 45°30' E 036°38'0 0.0
2017-Jul-19 12:29N 45°30' E 036°38'0 0.0
2017-Jul-19 11:59N 45°30' E 036°38'0 0.0
2017-Jul-19 11:29N 45°30' E 036°38'0 0.0
2017-Jul-19 10:53N 45°30' E 036°38'0 0.0
2017-Jul-19 10:29N 45°30' E 036°38'0 0.0
2017-Jul-19 09:44N 45°30' E 036°38'0 0.0
2017-Jul-19 09:26N 45°30' E 036°38'0 0.0
2017-Jul-19 08:59N 45°30' E 036°38'0 0.0
2017-Jul-19 08:29N 45°30' E 036°38'0 0.0
2017-Jul-19 07:59N 45°30' E 036°38'0 0.0
2017-Jul-19 07:29N 45°30' E 036°38'0 0.0
2017-Jul-19 06:59N 45°30' E 036°38'0 0.0
2017-Jul-19 06:23N 45°30' E 036°38'0 0.0
2017-Jul-19 05:56N 45°30' E 036°38'0 0.0
2017-Jul-19 05:29N 45°30' E 036°38'0 0.0
2017-Jul-19 04:47N 45°30' E 036°38'0 0.0
2017-Jul-19 04:23N 45°30' E 036°38'0 0.0
2017-Jul-19 03:53N 45°30' E 036°38'0 0.0
2017-Jul-19 03:23N 45°30' E 036°38'0 0.0
2017-Jul-19 01:53N 45°30' E 036°38'0 0.0
2017-Jul-19 01:17N 45°30' E 036°38'0 0.0
2017-Jul-19 00:50N 45°30' E 036°38'0 0.0
2017-Jul-19 00:26N 45°30' E 036°38'0 0.0
2017-Jul-18 23:22N 45°30' E 036°38'0 0.0
2017-Jul-18 22:58N 45°30' E 036°38'0 0.0
2017-Jul-18 22:30N 45°30' E 036°38'0 0.0
2017-Jul-18 21:57N 45°30' E 036°38'0 0.0
2017-Jul-18 21:24N 45°30' E 036°38'0 0.0
2017-Jul-18 21:00N 45°30' E 036°38'0 0.0
2017-Jul-18 20:30N 45°30' E 036°38'0 0.0
2017-Jul-18 20:00N 45°30' E 036°38'0 0.3
2017-Jul-18 19:27N 45°30' E 036°38'0 0.3
2017-Jul-18 19:00N 45°30' E 036°38'0 0.0
2017-Jul-18 18:30N 45°30' E 036°38'0 0.0
2017-Jul-18 18:00N 45°30' E 036°38'0 0.0
2017-Jul-18 17:30N 45°30' E 036°38'0 0.0
2017-Jul-18 17:00N 45°30' E 036°38'0 0.0
2017-Jul-18 16:30N 45°30' E 036°38'0 0.0
2017-Jul-18 16:00N 45°30' E 036°38'0 0.0
2017-Jul-18 15:30N 45°30' E 036°38'0 0.0
2017-Jul-18 15:00N 45°30' E 036°38'0 0.0
2017-Jul-18 14:00N 45°30' E 036°38'0 0.2
2017-Jul-18 13:30N 45°30' E 036°38'4 6.3
2017-Jul-18 12:53N 45°30' E 036°44'  
2017-Jul-14 16:04N 45°33' E 036°48'2 8.5
2017-Jul-14 15:46N 45°31' E 036°46'3 8.7
2017-Jul-14 15:26N 45°29' E 036°44'4 8.5
2017-Jul-14 15:00N 45°26' E 036°42'4 8.2
2017-Jul-14 14:30N 45°22' E 036°40'4 9.0
2017-Jul-14 14:00N 45°20' E 036°34'4 8.7
2017-Jul-14 13:30N 45°17' E 036°29'6 8.2
2017-Jul-14 12:45N 45°11' E 036°30'0 0.1
2017-Jul-14 10:51N 45°11' E 036°30'163 8.7
2017-Jul-13 16:14N 42°28' E 036°25'2 8.3
2017-Jul-13 15:57N 42°26' E 036°25'  
Track history (hours):
 
Tides and Currents Weather Stations Pressure Air Temp Water Temp Dewpoint Dewpoint Depression Visibility Wind Speed Wind Dir Waves Ship Positions

Sv.knyaz Vladimir

Last reported at 2017-Jul-22 04:16 UTC. Time now 2017-Jul-22 16:25 UTC.
Position N 45°54' E 037°01'.

Length 128 m; draft 3 m.

Type: Cargo ship. MMSI: 273350360.

Date/timePositionNaut miles runAvg speedWind from/ knotsBaromVisibWave heightAir tempDewpointWater temp
2017-Jul-22 04:16N 45°54' E 037°01'2 8.6
2017-Jul-22 03:59N 45°52' E 037°00'4 8.6
2017-Jul-22 03:30N 45°48' E 036°58'4 8.6
2017-Jul-22 03:00N 45°44' E 036°56'4 8.5
2017-Jul-22 02:30N 45°40' E 036°54'12 8.2
2017-Jul-22 01:05N 45°31' E 036°45'1 8.1
2017-Jul-22 00:59N 45°30' E 036°44'4 8.2
2017-Jul-22 00:30N 45°26' E 036°41'4 8.5
2017-Jul-22 00:00N 45°22' E 036°40'4 7.3
2017-Jul-21 23:30N 45°20' E 036°36'5 8.7
2017-Jul-21 22:58N 45°18' E 036°30'5 6.1
2017-Jul-21 22:09N 45°13' E 036°29'5 1.7
2017-Jul-21 19:10N 45°09' E 036°33'0 0.1
2017-Jul-21 17:07N 45°09' E 036°33'0 0.0
2017-Jul-21 16:43N 45°09' E 036°33'0 0.0
2017-Jul-21 15:22N 45°09' E 036°33'0 0.0
2017-Jul-21 14:49N 45°09' E 036°33'0 0.0
2017-Jul-21 10:52N 45°09' E 036°33'0 0.0
2017-Jul-21 10:13N 45°09' E 036°33'0 0.0
2017-Jul-21 08:52N 45°09' E 036°33'0 0.0
2017-Jul-21 07:40N 45°09' E 036°33'0 0.0
2017-Jul-21 07:28N 45°09' E 036°33'0 0.0
2017-Jul-21 06:52N 45°09' E 036°33'0 0.0
2017-Jul-21 05:46N 45°09' E 036°33'0 0.0
2017-Jul-21 05:22N 45°09' E 036°33'0 0.0
2017-Jul-21 04:58N 45°09' E 036°33'0 0.0
2017-Jul-21 03:52N 45°09' E 036°33'0 0.0
2017-Jul-21 00:19N 45°09' E 036°33'0 0.0
2017-Jul-20 23:58N 45°09' E 036°33'0 0.0
2017-Jul-20 23:28N 45°09' E 036°33'0 0.0
2017-Jul-20 20:28N 45°09' E 036°33'5 3.4
2017-Jul-20 18:59N 45°13' E 036°28'4 7.6
2017-Jul-20 18:30N 45°16' E 036°28'3 7.0
2017-Jul-20 18:00N 45°19' E 036°32'4 8.2
2017-Jul-20 17:30N 45°21' E 036°37'3 6.3
2017-Jul-20 17:00N 45°23' E 036°40'3 7.0
2017-Jul-20 16:30N 45°26' E 036°41'3 6.4
2017-Jul-20 16:00N 45°29' E 036°39'1 0.2
2017-Jul-20 13:06N 45°30' E 036°38'0 0.0
2017-Jul-20 12:39N 45°30' E 036°38'0 0.0
2017-Jul-20 12:18N 45°30' E 036°38'0 0.0
2017-Jul-20 11:42N 45°30' E 036°38'0 0.0
2017-Jul-20 11:09N 45°30' E 036°38'0 0.0
2017-Jul-20 07:24N 45°30' E 036°38'0 0.0
2017-Jul-20 07:00N 45°30' E 036°38'0 0.0
2017-Jul-20 05:57N 45°30' E 036°38'0 0.0
2017-Jul-20 05:25N 45°30' E 036°38'0 0.0
2017-Jul-20 00:39N 45°30' E 036°38'0 0.1
2017-Jul-20 00:30N 45°30' E 036°38'0 0.0
2017-Jul-19 21:54N 45°30' E 036°38'0 0.0
2017-Jul-19 21:29N 45°30' E 036°38'0 0.0
2017-Jul-19 20:59N 45°30' E 036°38'0 0.0
2017-Jul-19 20:29N 45°30' E 036°38'0 0.0
2017-Jul-19 19:59N 45°30' E 036°38'0 0.0
2017-Jul-19 19:26N 45°30' E 036°38'0 0.0
2017-Jul-19 18:59N 45°30' E 036°38'0 0.0
2017-Jul-19 18:29N 45°30' E 036°38'0 0.0
2017-Jul-19 17:59N 45°30' E 036°38'0 0.0
2017-Jul-19 17:29N 45°30' E 036°38'0 0.0
2017-Jul-19 16:53N 45°30' E 036°38'0 0.0
2017-Jul-19 16:29N 45°30' E 036°38'0 0.0
2017-Jul-19 15:59N 45°30' E 036°38'0 0.0
2017-Jul-19 15:29N 45°30' E 036°38'0 0.0
2017-Jul-19 14:53N 45°30' E 036°38'0 0.0
2017-Jul-19 14:29N 45°30' E 036°38'0 0.0
2017-Jul-19 13:56N 45°30' E 036°38'0 0.0
2017-Jul-19 13:26N 45°30' E 036°38'0 0.0
2017-Jul-19 12:59N 45°30' E 036°38'0 0.0
2017-Jul-19 12:29N 45°30' E 036°38'0 0.0
2017-Jul-19 11:59N 45°30' E 036°38'0 0.0
2017-Jul-19 11:29N 45°30' E 036°38'0 0.0
2017-Jul-19 10:53N 45°30' E 036°38'0 0.0
2017-Jul-19 10:29N 45°30' E 036°38'0 0.0
2017-Jul-19 09:44N 45°30' E 036°38'0 0.0
2017-Jul-19 09:26N 45°30' E 036°38'0 0.0
2017-Jul-19 08:59N 45°30' E 036°38'0 0.0
2017-Jul-19 08:29N 45°30' E 036°38'0 0.0
2017-Jul-19 07:59N 45°30' E 036°38'0 0.0
2017-Jul-19 07:29N 45°30' E 036°38'0 0.0
2017-Jul-19 06:59N 45°30' E 036°38'0 0.0
2017-Jul-19 06:23N 45°30' E 036°38'0 0.0
2017-Jul-19 05:56N 45°30' E 036°38'0 0.0
2017-Jul-19 05:29N 45°30' E 036°38'0 0.0
2017-Jul-19 04:47N 45°30' E 036°38'0 0.0
2017-Jul-19 04:23N 45°30' E 036°38'0 0.0
2017-Jul-19 03:53N 45°30' E 036°38'0 0.0
2017-Jul-19 03:23N 45°30' E 036°38'0 0.0
2017-Jul-19 01:53N 45°30' E 036°38'0 0.0
2017-Jul-19 01:17N 45°30' E 036°38'0 0.0
2017-Jul-19 00:50N 45°30' E 036°38'0 0.0
2017-Jul-19 00:26N 45°30' E 036°38'0 0.0
2017-Jul-18 23:22N 45°30' E 036°38'0 0.0
2017-Jul-18 22:58N 45°30' E 036°38'0 0.0
2017-Jul-18 22:30N 45°30' E 036°38'0 0.0
2017-Jul-18 21:57N 45°30' E 036°38'0 0.0
2017-Jul-18 21:24N 45°30' E 036°38'0 0.0
2017-Jul-18 21:00N 45°30' E 036°38'0 0.0
2017-Jul-18 20:30N 45°30' E 036°38'0 0.0
2017-Jul-18 20:00N 45°30' E 036°38'0 0.3
2017-Jul-18 19:27N 45°30' E 036°38'0 0.3
2017-Jul-18 19:00N 45°30' E 036°38'0 0.0
2017-Jul-18 18:30N 45°30' E 036°38'0 0.0
2017-Jul-18 18:00N 45°30' E 036°38'0 0.0
2017-Jul-18 17:30N 45°30' E 036°38'0 0.0
2017-Jul-18 17:00N 45°30' E 036°38'0 0.0
2017-Jul-18 16:30N 45°30' E 036°38'0 0.0
2017-Jul-18 16:00N 45°30' E 036°38'0 0.0
2017-Jul-18 15:30N 45°30' E 036°38'0 0.0
2017-Jul-18 15:00N 45°30' E 036°38'0 0.0
2017-Jul-18 14:00N 45°30' E 036°38'0 0.2
2017-Jul-18 13:30N 45°30' E 036°38'4 6.3
2017-Jul-18 12:53N 45°30' E 036°44'  
2017-Jul-14 16:04N 45°33' E 036°48'2 8.5
2017-Jul-14 15:46N 45°31' E 036°46'3 8.7
2017-Jul-14 15:26N 45°29' E 036°44'4 8.5
2017-Jul-14 15:00N 45°26' E 036°42'4 8.2
2017-Jul-14 14:30N 45°22' E 036°40'4 9.0
2017-Jul-14 14:00N 45°20' E 036°34'4 8.7
2017-Jul-14 13:30N 45°17' E 036°29'6 8.2
2017-Jul-14 12:45N 45°11' E 036°30'0 0.1
2017-Jul-14 10:51N 45°11' E 036°30'163 8.7
2017-Jul-13 16:14N 42°28' E 036°25'2 8.3
2017-Jul-13 15:57N 42°26' E 036°25'  

Dump ship's entire track history